createdAt,value
2023-08-29T00:00:23.950Z,32.85
2023-08-29T00:02:53.977Z,32.84
2023-08-29T00:05:22.490Z,32.89
2023-08-29T00:07:50.831Z,32.99
2023-08-29T00:10:19.234Z,32.87
2023-08-29T00:12:47.560Z,33.02
2023-08-29T00:15:16.035Z,33.28
2023-08-29T00:17:45.191Z,32.99
2023-08-29T00:20:13.722Z,33.19
2023-08-29T00:22:42.144Z,33.17
2023-08-29T00:25:10.677Z,33.68
2023-08-29T00:27:39.049Z,33.24
2023-08-29T00:30:07.905Z,33.15
2023-08-29T00:32:36.283Z,32.86
2023-08-29T00:35:04.844Z,33.26
2023-08-29T00:37:34.357Z,32.52
2023-08-29T00:40:03.090Z,32.35
2023-08-29T00:42:31.540Z,32.88
2023-08-29T00:44:59.922Z,34.01
2023-08-29T00:47:28.786Z,34.40
2023-08-29T00:49:57.304Z,34.24
2023-08-29T00:52:25.806Z,34.27
2023-08-29T00:54:54.101Z,34.11
2023-08-29T00:57:22.595Z,33.53
2023-08-29T00:59:51.079Z,33.43
2023-08-29T01:02:20.346Z,33.00
2023-08-29T01:04:48.755Z,33.21
2023-08-29T01:07:19.925Z,33.51
2023-08-29T01:09:48.335Z,33.48
2023-08-29T01:12:17.739Z,33.57
2023-08-29T01:14:58.453Z,33.58
2023-08-29T01:17:30.064Z,34.32
2023-08-29T01:19:59.464Z,34.08
2023-08-29T01:22:38.340Z,34.34
2023-08-29T01:25:30.103Z,34.91
2023-08-29T01:27:58.465Z,34.93
2023-08-29T01:30:27.185Z,34.70
2023-08-29T01:32:56.059Z,34.91
2023-08-29T01:35:24.485Z,35.05
2023-08-29T01:37:52.870Z,35.26
2023-08-29T01:40:21.380Z,35.21
2023-08-29T01:42:49.718Z,35.04
2023-08-29T01:45:18.054Z,34.60
2023-08-29T01:47:46.545Z,34.18
2023-08-29T01:50:15.332Z,33.81
2023-08-29T01:52:43.678Z,33.66
2023-08-29T01:55:12.127Z,33.73
2023-08-29T01:57:41.769Z,33.81
2023-08-29T02:00:10.798Z,33.79
2023-08-29T02:02:39.714Z,33.72
2023-08-29T02:05:08.554Z,33.46
2023-08-29T02:07:37.022Z,33.52
2023-08-29T02:10:05.678Z,33.67
2023-08-29T02:12:34.015Z,33.63
2023-08-29T02:15:03.629Z,33.87
2023-08-29T02:17:32.051Z,33.67
2023-08-29T02:20:00.711Z,33.32
2023-08-29T02:22:30.515Z,33.25
2023-08-29T02:25:01.014Z,33.37
2023-08-29T02:27:29.418Z,33.24
2023-08-29T02:29:58.812Z,33.19
2023-08-29T02:32:27.270Z,33.00
2023-08-29T02:34:56.185Z,32.77
2023-08-29T02:37:25.454Z,32.89
2023-08-29T02:39:53.876Z,33.03
2023-08-29T02:42:22.263Z,32.90
2023-08-29T02:44:50.721Z,32.76
2023-08-29T02:47:19.478Z,32.54
2023-08-29T02:49:47.811Z,32.51
2023-08-29T02:52:16.168Z,32.43
2023-08-29T02:54:44.560Z,32.53
2023-08-29T02:57:12.927Z,32.43
2023-08-29T02:59:41.291Z,32.63
2023-08-29T03:02:09.685Z,32.77
2023-08-29T03:04:38.065Z,32.91
2023-08-29T03:07:06.605Z,32.76
2023-08-29T03:09:35.208Z,32.50
2023-08-29T03:12:03.650Z,32.89
2023-08-29T03:14:32.047Z,33.60
2023-08-29T03:17:00.426Z,33.51
2023-08-29T03:19:28.935Z,33.08
2023-08-29T03:21:57.251Z,33.34
2023-08-29T03:24:25.584Z,33.05
2023-08-29T03:26:53.910Z,32.78
2023-08-29T03:29:22.313Z,32.99
2023-08-29T03:31:50.673Z,33.33
2023-08-29T03:34:19.028Z,33.07
2023-08-29T03:36:47.366Z,33.32
2023-08-29T03:39:15.755Z,33.18
2023-08-29T03:41:44.183Z,33.25
2023-08-29T03:44:13.375Z,32.99
2023-08-29T03:46:41.743Z,33.03
2023-08-29T03:49:10.088Z,33.43
2023-08-29T03:51:38.438Z,33.71
2023-08-29T03:54:06.817Z,34.02
2023-08-29T03:56:35.176Z,34.40
2023-08-29T03:59:05.186Z,34.89
2023-08-29T04:01:33.624Z,33.89
2023-08-29T04:04:04.018Z,33.40
2023-08-29T04:06:35.670Z,33.32
2023-08-29T04:09:04.805Z,33.31
2023-08-29T04:11:33.166Z,33.83
2023-08-29T04:14:02.217Z,34.27
2023-08-29T04:16:30.606Z,34.65
2023-08-29T04:18:59.058Z,34.60
2023-08-29T04:21:27.400Z,34.20
2023-08-29T04:23:55.991Z,34.13
2023-08-29T04:26:24.362Z,34.01
2023-08-29T04:28:52.780Z,34.75
2023-08-29T04:31:22.086Z,35.29
2023-08-29T04:33:50.546Z,35.80
2023-08-29T04:36:18.912Z,34.94
2023-08-29T04:38:50.307Z,34.80
2023-08-29T04:41:18.625Z,34.85
2023-08-29T04:43:46.971Z,34.77
2023-08-29T04:46:15.403Z,34.90
2023-08-29T04:48:43.916Z,34.91
2023-08-29T04:51:12.235Z,35.02
2023-08-29T04:53:41.075Z,34.77
2023-08-29T04:56:09.951Z,34.76
2023-08-29T04:58:38.318Z,34.87
2023-08-29T05:01:07.784Z,35.36
2023-08-29T05:03:36.232Z,35.40
2023-08-29T05:06:04.678Z,35.51
2023-08-29T05:08:35.897Z,35.73
2023-08-29T05:11:04.736Z,36.23
2023-08-29T05:13:33.211Z,35.76
2023-08-29T05:16:01.675Z,35.34
2023-08-29T05:18:30.143Z,34.67
2023-08-29T05:20:58.513Z,34.36
2023-08-29T05:23:26.873Z,34.60
2023-08-29T05:25:55.306Z,35.09
2023-08-29T05:28:23.856Z,35.03
2023-08-29T05:30:52.437Z,34.70
2023-08-29T05:33:20.765Z,34.30
2023-08-29T05:35:49.199Z,34.19
2023-08-29T05:38:17.572Z,34.01
2023-08-29T05:40:45.939Z,33.91
2023-08-29T05:43:14.777Z,33.70
2023-08-29T05:45:43.434Z,33.74
2023-08-29T05:48:11.847Z,33.74
2023-08-29T05:50:43.643Z,33.70
2023-08-29T05:53:11.981Z,33.78
2023-08-29T05:55:40.345Z,33.95
2023-08-29T05:58:09.200Z,33.84
2023-08-29T06:00:38.747Z,33.82
2023-08-29T06:03:08.284Z,33.87
2023-08-29T06:05:37.797Z,34.29
2023-08-29T06:08:17.360Z,34.38
2023-08-29T06:10:47.605Z,34.40
2023-08-29T06:13:16.039Z,34.75
2023-08-29T06:15:44.497Z,35.04
2023-08-29T06:18:12.909Z,34.74
2023-08-29T06:20:41.400Z,34.74
2023-08-29T06:23:09.704Z,35.04
2023-08-29T06:25:38.038Z,34.32
2023-08-29T06:28:06.793Z,34.32
2023-08-29T06:30:36.050Z,34.65
2023-08-29T06:33:07.493Z,34.46
2023-08-29T06:35:39.544Z,34.24
2023-08-29T06:38:08.755Z,34.69
2023-08-29T06:40:37.769Z,34.80
2023-08-29T06:43:06.189Z,34.54
2023-08-29T06:45:34.563Z,34.48
2023-08-29T06:48:03.163Z,34.43
2023-08-29T06:50:31.620Z,34.24
2023-08-29T06:52:59.963Z,34.16
2023-08-29T06:55:28.874Z,33.87
2023-08-29T06:57:57.232Z,33.88
2023-08-29T07:00:25.651Z,33.86
2023-08-29T07:02:54.203Z,33.79
2023-08-29T07:05:22.780Z,33.78
2023-08-29T07:07:51.257Z,33.72
2023-08-29T07:10:19.868Z,33.62
2023-08-29T07:12:49.784Z,33.78
2023-08-29T07:15:18.306Z,34.10
2023-08-29T07:17:46.844Z,34.34
2023-08-29T07:20:16.921Z,34.43
2023-08-29T07:22:45.281Z,34.46
2023-08-29T07:25:14.168Z,34.05
2023-08-29T07:27:42.544Z,33.87
2023-08-29T07:30:15.797Z,33.14
2023-08-29T07:32:45.288Z,33.62
2023-08-29T07:35:15.229Z,33.77
2023-08-29T07:37:43.761Z,33.84
2023-08-29T07:40:12.172Z,33.80
2023-08-29T07:42:40.661Z,33.70
2023-08-29T07:45:09.707Z,33.62
2023-08-29T07:47:38.136Z,33.27
2023-08-29T07:50:06.708Z,33.25
2023-08-29T07:52:35.910Z,33.41
2023-08-29T07:55:05.665Z,32.96
2023-08-29T07:57:34.039Z,32.50
2023-08-29T08:00:02.492Z,32.47
2023-08-29T08:02:30.926Z,32.55
2023-08-29T08:04:59.320Z,32.57
2023-08-29T08:07:27.747Z,32.11
2023-08-29T08:09:56.085Z,31.77
2023-08-29T08:12:24.507Z,31.67
2023-08-29T08:14:54.199Z,31.92
2023-08-29T08:17:22.665Z,31.72
2023-08-29T08:19:51.135Z,32.12
2023-08-29T08:22:19.655Z,32.68
2023-08-29T08:24:48.108Z,32.68
2023-08-29T08:27:17.828Z,32.51
2023-08-29T08:29:46.306Z,32.05
2023-08-29T08:32:14.971Z,31.56
2023-08-29T08:34:43.351Z,31.38
2023-08-29T08:37:11.683Z,32.19
2023-08-29T08:39:40.086Z,31.70
2023-08-29T08:42:10.686Z,31.82
2023-08-29T08:44:39.705Z,30.90
2023-08-29T08:47:08.397Z,31.10
2023-08-29T08:49:36.897Z,31.33
2023-08-29T08:52:06.401Z,30.61
2023-08-29T08:54:34.969Z,30.63
2023-08-29T08:57:03.761Z,31.35
2023-08-29T08:59:32.087Z,31.17
2023-08-29T09:02:00.450Z,30.38
2023-08-29T09:04:28.911Z,30.81
2023-08-29T09:06:57.348Z,29.51
2023-08-29T09:09:26.997Z,29.33
2023-08-29T09:11:56.615Z,30.33
2023-08-29T09:14:25.625Z,30.09
2023-08-29T09:16:54.856Z,30.73
2023-08-29T09:19:24.084Z,30.19
2023-08-29T09:21:52.733Z,30.14
2023-08-29T09:24:31.990Z,30.30
2023-08-29T09:27:01.081Z,29.85
2023-08-29T09:29:30.923Z,29.70
2023-08-29T09:31:59.525Z,29.93
2023-08-29T09:34:29.079Z,30.43
2023-08-29T09:36:58.124Z,30.08
2023-08-29T09:39:27.377Z,30.32
2023-08-29T09:42:02.658Z,30.00
2023-08-29T09:44:35.102Z,30.14
2023-08-29T09:47:03.992Z,29.79
2023-08-29T09:49:42.299Z,29.06
2023-08-29T09:52:11.293Z,29.08
2023-08-29T09:54:48.138Z,29.26
2023-08-29T09:57:19.426Z,29.19
2023-08-29T09:59:47.992Z,28.93
2023-08-29T10:02:19.508Z,29.07
2023-08-29T10:05:09.909Z,29.24
2023-08-29T10:07:42.950Z,28.80
2023-08-29T10:10:11.795Z,29.38
2023-08-29T10:12:40.540Z,30.33
2023-08-29T10:15:09.535Z,31.21
2023-08-29T10:17:38.413Z,31.09
2023-08-29T10:20:13.451Z,30.78
2023-08-29T10:22:46.482Z,30.14
2023-08-29T10:25:15.088Z,30.04
2023-08-29T10:27:43.756Z,29.58
2023-08-29T10:30:12.568Z,29.65
2023-08-29T10:32:42.380Z,30.14
2023-08-29T10:35:18.712Z,30.11
2023-08-29T10:37:50.433Z,29.64
2023-08-29T10:40:19.529Z,29.46
2023-08-29T10:42:55.680Z,28.56
2023-08-29T10:45:42.767Z,28.98
2023-08-29T10:48:16.163Z,29.01
2023-08-29T10:51:06.263Z,28.92
2023-08-29T10:53:58.576Z,28.63
2023-08-29T10:56:39.478Z,28.68
2023-08-29T10:59:27.936Z,28.55
2023-08-29T11:02:14.811Z,28.57
2023-08-29T11:04:55.963Z,27.84
2023-08-29T11:07:26.303Z,28.93
2023-08-29T11:10:14.669Z,28.39
2023-08-29T11:13:01.681Z,28.66
2023-08-29T11:15:48.499Z,28.31
2023-08-29T11:18:20.236Z,28.13
2023-08-29T11:20:48.846Z,28.35
2023-08-29T11:23:17.737Z,27.24
2023-08-29T11:25:50.821Z,27.30
2023-08-29T11:28:19.757Z,27.91
2023-08-29T11:30:48.239Z,27.23
2023-08-29T11:33:16.725Z,27.43
2023-08-29T11:35:45.104Z,27.34
2023-08-29T11:38:13.504Z,27.50
2023-08-29T11:40:47.470Z,26.72
2023-08-29T11:44:04.202Z,27.22
2023-08-29T11:46:19.808Z,27.40
2023-08-29T11:48:48.453Z,27.37
2023-08-29T11:51:16.783Z,27.41
2023-08-29T11:53:45.185Z,27.41
2023-08-29T11:56:13.629Z,27.56
2023-08-29T11:58:42.725Z,27.57
2023-08-29T12:01:12.073Z,27.03
2023-08-29T12:03:40.753Z,27.05
2023-08-29T12:06:13.317Z,27.12
2023-08-29T12:08:45.579Z,26.17
2023-08-29T12:11:16.785Z,27.13
2023-08-29T12:13:59.534Z,27.05
2023-08-29T12:16:29.644Z,26.67
2023-08-29T12:19:06.033Z,26.60
2023-08-29T12:21:34.412Z,25.41
2023-08-29T12:24:12.486Z,25.25
2023-08-29T12:26:40.971Z,25.79
2023-08-29T12:29:09.399Z,24.86
2023-08-29T12:31:37.724Z,25.61
2023-08-29T12:34:06.083Z,26.62
2023-08-29T12:36:34.547Z,26.34
2023-08-29T12:39:04.216Z,26.32
2023-08-29T12:41:32.619Z,26.09
2023-08-29T12:44:01.026Z,26.08
2023-08-29T12:46:31.725Z,25.88
2023-08-29T12:49:00.203Z,24.77
2023-08-29T12:51:28.563Z,25.03
2023-08-29T12:53:56.886Z,24.90
2023-08-29T12:56:25.282Z,25.14
2023-08-29T12:58:54.252Z,25.04
2023-08-29T13:01:24.267Z,24.65
2023-08-29T13:03:52.733Z,24.10
2023-08-29T13:06:22.509Z,24.69
2023-08-29T13:08:53.317Z,23.95
2023-08-29T13:11:21.737Z,24.88
2023-08-29T13:13:50.111Z,25.27
2023-08-29T13:16:19.062Z,25.11
2023-08-29T13:18:47.795Z,24.84
2023-08-29T13:21:16.141Z,24.08
2023-08-29T13:23:44.514Z,24.54
2023-08-29T13:26:12.902Z,24.35
2023-08-29T13:28:41.232Z,24.21
2023-08-29T13:31:09.615Z,24.68
2023-08-29T13:33:37.994Z,24.87
2023-08-29T13:36:06.851Z,24.88
2023-08-29T13:38:35.195Z,23.83
2023-08-29T13:41:03.562Z,24.31
2023-08-29T13:43:31.924Z,24.03
2023-08-29T13:46:00.838Z,25.00
2023-08-29T13:48:29.402Z,24.87
2023-08-29T13:50:58.374Z,24.59
2023-08-29T13:53:26.730Z,24.73
2023-08-29T13:55:55.288Z,24.67
2023-08-29T13:58:23.662Z,25.31
2023-08-29T14:00:52.051Z,25.17
2023-08-29T14:03:33.239Z,25.19
2023-08-29T14:06:01.994Z,25.74
2023-08-29T14:08:30.466Z,26.30
2023-08-29T14:11:06.511Z,27.99
2023-08-29T14:13:37.315Z,27.38
2023-08-29T14:16:05.817Z,26.99
2023-08-29T14:18:37.357Z,26.16
2023-08-29T14:21:05.699Z,25.43
2023-08-29T14:23:34.013Z,25.06
2023-08-29T14:26:02.915Z,25.49
2023-08-29T14:28:31.437Z,25.45
2023-08-29T14:31:00.139Z,25.81
2023-08-29T14:33:28.548Z,26.35
2023-08-29T14:35:57.440Z,25.79
2023-08-29T14:38:25.856Z,27.35
2023-08-29T14:40:54.220Z,27.75
2023-08-29T14:43:22.649Z,27.32
2023-08-29T14:45:50.992Z,27.98
2023-08-29T14:48:19.328Z,27.55
2023-08-29T14:50:47.730Z,27.88
2023-08-29T14:53:16.064Z,27.76
2023-08-29T14:55:44.440Z,27.98
2023-08-29T14:58:12.827Z,27.74
2023-08-29T15:00:43.464Z,27.44
2023-08-29T15:03:13.971Z,29.00
2023-08-29T15:05:42.547Z,29.71
2023-08-29T15:08:10.895Z,30.38
2023-08-29T15:10:39.224Z,30.23
2023-08-29T15:13:08.504Z,29.94
2023-08-29T15:15:38.472Z,30.58
2023-08-29T15:18:08.211Z,31.24
2023-08-29T15:20:39.679Z,30.00
2023-08-29T15:23:08.846Z,28.94
2023-08-29T15:25:37.381Z,28.56
2023-08-29T15:28:06.126Z,28.71
2023-08-29T15:30:34.904Z,28.62
2023-08-29T15:33:03.471Z,28.82
2023-08-29T15:35:31.909Z,30.21
2023-08-29T15:38:00.375Z,29.48
2023-08-29T15:40:28.955Z,30.28
2023-08-29T15:42:58.382Z,28.71
2023-08-29T15:45:26.972Z,28.35
2023-08-29T15:47:56.489Z,28.60
2023-08-29T15:50:25.867Z,27.86
2023-08-29T15:52:54.257Z,27.58
2023-08-29T15:55:22.639Z,27.93
2023-08-29T15:57:51.368Z,28.00
2023-08-29T16:00:20.913Z,28.03
2023-08-29T16:02:50.158Z,28.61
2023-08-29T16:05:19.900Z,28.85
2023-08-29T16:07:49.895Z,28.52
2023-08-29T16:10:18.380Z,28.64
2023-08-29T16:12:47.386Z,28.69
2023-08-29T16:15:17.541Z,27.82
2023-08-29T16:17:46.272Z,28.46
2023-08-29T16:20:15.964Z,28.91
2023-08-29T16:22:45.469Z,28.50
2023-08-29T16:25:13.852Z,28.08
2023-08-29T16:27:42.457Z,28.10
2023-08-29T16:30:11.975Z,28.04
2023-08-29T16:32:41.542Z,28.26
2023-08-29T16:35:10.011Z,28.17
2023-08-29T16:37:38.702Z,28.77
2023-08-29T16:40:07.648Z,29.12
2023-08-29T16:42:36.193Z,28.86
2023-08-29T16:45:09.376Z,28.03
2023-08-29T16:47:37.954Z,27.71
2023-08-29T16:50:06.718Z,27.90
2023-08-29T16:52:35.064Z,27.61
2023-08-29T16:55:04.191Z,27.68
2023-08-29T16:57:32.747Z,27.77
2023-08-29T17:00:03.566Z,27.92
2023-08-29T17:02:32.860Z,27.33
2023-08-29T17:05:01.408Z,27.37
2023-08-29T17:07:29.855Z,26.88
2023-08-29T17:09:58.290Z,26.82
2023-08-29T17:12:26.664Z,27.06
2023-08-29T17:14:55.040Z,27.46
2023-08-29T17:17:23.515Z,27.28
2023-08-29T17:19:51.959Z,26.67
2023-08-29T17:22:20.293Z,26.63
2023-08-29T17:24:48.705Z,27.08
2023-08-29T17:27:17.860Z,27.72
2023-08-29T17:29:46.266Z,27.30
2023-08-29T17:32:15.486Z,26.94
2023-08-29T17:34:44.842Z,26.78
2023-08-29T17:37:13.210Z,26.76
2023-08-29T17:39:41.666Z,26.93
2023-08-29T17:42:10.072Z,26.76
2023-08-29T17:44:38.593Z,26.66
2023-08-29T17:47:07.342Z,27.26
2023-08-29T17:49:35.724Z,27.38
2023-08-29T17:52:04.255Z,27.16
2023-08-29T17:54:32.738Z,27.29
2023-08-29T17:57:01.126Z,27.57
2023-08-29T17:59:29.480Z,27.79
2023-08-29T18:01:57.862Z,27.70
2023-08-29T18:04:26.221Z,28.02
2023-08-29T18:06:54.563Z,27.71
2023-08-29T18:09:23.032Z,27.78
2023-08-29T18:11:51.469Z,27.52
2023-08-29T18:14:19.819Z,28.08
2023-08-29T18:16:49.573Z,28.67
2023-08-29T18:19:18.159Z,28.29
2023-08-29T18:21:46.654Z,29.00
2023-08-29T18:24:15.314Z,28.85
2023-08-29T18:26:43.637Z,28.58
2023-08-29T18:29:12.006Z,28.45
2023-08-29T18:31:40.732Z,28.45
2023-08-29T18:34:09.126Z,28.76
2023-08-29T18:36:39.539Z,28.69
2023-08-29T18:39:09.029Z,28.79
2023-08-29T18:41:37.469Z,28.58
2023-08-29T18:44:05.855Z,28.71
2023-08-29T18:46:34.187Z,28.40
2023-08-29T18:49:02.564Z,28.78
2023-08-29T18:51:30.892Z,28.77
2023-08-29T18:53:59.346Z,28.33
2023-08-29T18:56:27.756Z,28.40
2023-08-29T18:58:56.227Z,27.97
2023-08-29T19:01:24.600Z,27.78
2023-08-29T19:03:53.214Z,27.65
2023-08-29T19:06:21.717Z,27.93
2023-08-29T19:08:51.332Z,27.49
2023-08-29T19:11:19.690Z,27.65
2023-08-29T19:13:48.190Z,27.74
2023-08-29T19:16:16.572Z,27.76
2023-08-29T19:18:45.463Z,27.85
2023-08-29T19:21:13.860Z,27.80
2023-08-29T19:23:42.310Z,27.83
2023-08-29T19:26:10.703Z,27.34
2023-08-29T19:28:39.154Z,27.80
2023-08-29T19:31:07.575Z,27.65
2023-08-29T19:33:35.994Z,27.56
2023-08-29T19:36:11.645Z,27.45
2023-08-29T19:38:41.356Z,27.15
2023-08-29T19:41:10.348Z,27.30
2023-08-29T19:43:38.747Z,27.39
2023-08-29T19:46:07.339Z,27.17
2023-08-29T19:48:35.761Z,27.29
2023-08-29T19:51:05.088Z,27.41
2023-08-29T19:53:36.591Z,27.24
2023-08-29T19:56:07.133Z,27.38
2023-08-29T19:58:35.974Z,27.27
2023-08-29T20:01:05.095Z,27.43
2023-08-29T20:03:33.617Z,27.15
2023-08-29T20:06:02.059Z,27.11
2023-08-29T20:08:30.374Z,27.38
2023-08-29T20:10:58.899Z,27.63
2023-08-29T20:13:27.530Z,27.40
2023-08-29T20:15:56.047Z,27.78
2023-08-29T20:18:25.242Z,27.75
2023-08-29T20:20:54.143Z,27.57
2023-08-29T20:23:22.953Z,27.64
2023-08-29T20:25:52.907Z,27.43
2023-08-29T20:28:21.726Z,27.79
2023-08-29T20:30:56.318Z,27.65
2023-08-29T20:33:24.846Z,27.80
2023-08-29T20:35:53.242Z,28.12
2023-08-29T20:38:22.286Z,28.00
2023-08-29T20:40:50.676Z,27.75
2023-08-29T20:43:19.152Z,27.98
2023-08-29T20:45:47.492Z,27.95
2023-08-29T20:48:17.052Z,27.86
2023-08-29T20:50:47.911Z,28.03
2023-08-29T20:53:16.412Z,28.21
2023-08-29T20:55:44.999Z,28.01
2023-08-29T20:58:13.410Z,27.87
2023-08-29T21:00:42.380Z,27.86
2023-08-29T21:03:11.003Z,27.75
2023-08-29T21:05:39.389Z,27.64
2023-08-29T21:08:08.105Z,27.60
2023-08-29T21:10:37.093Z,27.71
2023-08-29T21:13:05.526Z,27.75
2023-08-29T21:15:39.127Z,27.77
2023-08-29T21:18:07.897Z,27.99
2023-08-29T21:20:38.620Z,28.32
2023-08-29T21:23:07.371Z,27.89
2023-08-29T21:25:35.687Z,28.11
2023-08-29T21:28:04.481Z,28.07
2023-08-29T21:30:33.052Z,28.18
2023-08-29T21:33:01.482Z,28.20
2023-08-29T21:35:29.855Z,28.39
2023-08-29T21:37:58.190Z,28.23
2023-08-29T21:40:26.512Z,28.24
2023-08-29T21:42:54.880Z,27.94
2023-08-29T21:45:23.225Z,27.99
2023-08-29T21:47:53.228Z,28.16
2023-08-29T21:50:21.721Z,28.07
2023-08-29T21:52:50.090Z,28.01
2023-08-29T21:55:18.518Z,28.26
2023-08-29T21:57:46.898Z,28.18
2023-08-29T22:00:16.743Z,28.36
2023-08-29T22:02:45.283Z,28.67
2023-08-29T22:05:13.826Z,28.49
2023-08-29T22:07:42.216Z,28.16
2023-08-29T22:10:10.845Z,28.04
2023-08-29T22:12:40.696Z,28.26
2023-08-29T22:15:09.837Z,28.08
2023-08-29T22:17:38.716Z,28.07
2023-08-29T22:20:07.683Z,28.01
2023-08-29T22:22:36.724Z,27.87
2023-08-29T22:25:05.324Z,28.01
2023-08-29T22:27:33.674Z,27.82
2023-08-29T22:30:02.068Z,27.86
2023-08-29T22:32:30.581Z,27.79
2023-08-29T22:34:59.431Z,27.72
2023-08-29T22:37:27.774Z,27.93
2023-08-29T22:39:56.122Z,27.67
2023-08-29T22:42:24.500Z,27.71
2023-08-29T22:44:52.849Z,27.90
2023-08-29T22:47:21.246Z,27.94
2023-08-29T22:49:49.667Z,27.82
2023-08-29T22:52:19.050Z,27.86
2023-08-29T22:54:47.423Z,27.87
2023-08-29T22:57:17.485Z,27.72
2023-08-29T22:59:45.958Z,27.69
2023-08-29T23:02:14.632Z,27.59
2023-08-29T23:04:43.387Z,27.46
2023-08-29T23:07:12.391Z,27.77
2023-08-29T23:09:42.710Z,27.67
2023-08-29T23:12:11.094Z,27.52
2023-08-29T23:14:39.473Z,27.69
2023-08-29T23:17:09.736Z,27.52
2023-08-29T23:19:38.234Z,27.33
2023-08-29T23:22:07.107Z,27.67
2023-08-29T23:24:35.466Z,27.95
2023-08-29T23:27:06.742Z,27.89
2023-08-29T23:29:37.207Z,27.77
2023-08-29T23:32:06.116Z,27.64
2023-08-29T23:34:34.430Z,27.73
2023-08-29T23:37:02.914Z,27.48
2023-08-29T23:39:31.372Z,27.78
2023-08-29T23:42:01.128Z,27.61
2023-08-29T23:44:29.735Z,27.73
2023-08-29T23:46:58.487Z,27.80
2023-08-29T23:49:28.387Z,27.81
2023-08-29T23:51:56.764Z,27.81
2023-08-29T23:54:28.234Z,27.73
2023-08-29T23:56:56.805Z,27.66
2023-08-29T23:59:25.307Z,27.64
